sensor_id;sensor_type;location;lat;lon;timestamp;P1;durP1;ratioP1;P2;durP2;ratioP2
13571;SDS011;6857;53.484;10.216;2022-09-09T00:03:53;117.90;;;33.17;;
13571;SDS011;6857;53.484;10.216;2022-09-09T00:06:27;128.43;;;36.33;;
13571;SDS011;6857;53.484;10.216;2022-09-09T00:09:01;102.87;;;33.57;;
13571;SDS011;6857;53.484;10.216;2022-09-09T00:11:54;107.83;;;36.20;;
13571;SDS011;6857;53.484;10.216;2022-09-09T00:14:26;96.40;;;32.23;;
13571;SDS011;6857;53.484;10.216;2022-09-09T00:20:00;139.20;;;35.90;;
13571;SDS011;6857;53.484;10.216;2022-09-09T00:22:52;131.60;;;36.03;;
13571;SDS011;6857;53.484;10.216;2022-09-09T00:25:28;99.60;;;34.37;;
13571;SDS011;6857;53.484;10.216;2022-09-09T00:28:00;86.97;;;36.00;;
13571;SDS011;6857;53.484;10.216;2022-09-09T00:30:27;125.80;;;38.37;;
13571;SDS011;6857;53.484;10.216;2022-09-09T00:33:05;114.13;;;36.17;;
13571;SDS011;6857;53.484;10.216;2022-09-09T00:35:58;112.17;;;36.50;;
13571;SDS011;6857;53.484;10.216;2022-09-09T00:38:36;89.33;;;34.80;;
13571;SDS011;6857;53.484;10.216;2022-09-09T00:43:37;111.33;;;35.33;;
13571;SDS011;6857;53.484;10.216;2022-09-09T00:46:11;71.97;;;32.87;;
13571;SDS011;6857;53.484;10.216;2022-09-09T00:51:28;72.70;;;32.57;;
13571;SDS011;6857;53.484;10.216;2022-09-09T00:54:13;89.87;;;33.23;;
13571;SDS011;6857;53.484;10.216;2022-09-09T01:02:28;84.80;;;32.07;;
13571;SDS011;6857;53.484;10.216;2022-09-09T01:05:00;90.17;;;32.30;;
13571;SDS011;6857;53.484;10.216;2022-09-09T01:07:37;79.07;;;31.97;;
13571;SDS011;6857;53.484;10.216;2022-09-09T01:10:07;97.97;;;33.90;;
13571;SDS011;6857;53.484;10.216;2022-09-09T01:12:43;74.20;;;31.33;;
13571;SDS011;6857;53.484;10.216;2022-09-09T01:15:15;70.40;;;30.47;;
13571;SDS011;6857;53.484;10.216;2022-09-09T01:20:24;64.97;;;31.40;;
13571;SDS011;6857;53.484;10.216;2022-09-09T01:28:10;66.93;;;30.13;;
13571;SDS011;6857;53.484;10.216;2022-09-09T01:30:42;72.20;;;32.10;;
13571;SDS011;6857;53.484;10.216;2022-09-09T01:33:09;63.90;;;31.50;;
13571;SDS011;6857;53.484;10.216;2022-09-09T01:35:52;65.30;;;32.13;;
13571;SDS011;6857;53.484;10.216;2022-09-09T01:38:25;65.97;;;32.57;;
13571;SDS011;6857;53.484;10.216;2022-09-09T01:40:52;65.47;;;32.30;;
13571;SDS011;6857;53.484;10.216;2022-09-09T01:43:20;67.93;;;32.27;;
13571;SDS011;6857;53.484;10.216;2022-09-09T01:45:46;65.70;;;32.90;;
13571;SDS011;6857;53.484;10.216;2022-09-09T01:48:17;66.90;;;31.97;;
13571;SDS011;6857;53.484;10.216;2022-09-09T01:50:44;64.17;;;31.57;;
13571;SDS011;6857;53.484;10.216;2022-09-09T01:53:11;69.60;;;31.93;;
13571;SDS011;6857;53.484;10.216;2022-09-09T01:55:38;71.63;;;32.50;;
13571;SDS011;6857;53.484;10.216;2022-09-09T02:00:59;69.97;;;30.53;;
13571;SDS011;6857;53.484;10.216;2022-09-09T02:03:37;64.27;;;30.13;;
13571;SDS011;6857;53.484;10.216;2022-09-09T02:08:43;76.73;;;31.33;;
13571;SDS011;6857;53.484;10.216;2022-09-09T02:11:17;62.87;;;30.13;;
13571;SDS011;6857;53.484;10.216;2022-09-09T02:13:45;72.10;;;30.23;;
13571;SDS011;6857;53.484;10.216;2022-09-09T02:21:49;64.57;;;30.03;;
13571;SDS011;6857;53.484;10.216;2022-09-09T02:24:17;64.60;;;27.77;;
13571;SDS011;6857;53.484;10.216;2022-09-09T02:26:42;73.47;;;26.87;;
13571;SDS011;6857;53.484;10.216;2022-09-09T02:29:22;64.73;;;28.83;;
13571;SDS011;6857;53.484;10.216;2022-09-09T02:31:51;72.93;;;27.60;;
13571;SDS011;6857;53.484;10.216;2022-09-09T02:34:20;57.97;;;28.03;;
13571;SDS011;6857;53.484;10.216;2022-09-09T02:36:48;59.90;;;26.77;;
13571;SDS011;6857;53.484;10.216;2022-09-09T02:39:16;49.30;;;27.73;;
13571;SDS011;6857;53.484;10.216;2022-09-09T02:41:42;60.43;;;27.57;;
13571;SDS011;6857;53.484;10.216;2022-09-09T02:44:14;57.73;;;27.47;;
13571;SDS011;6857;53.484;10.216;2022-09-09T02:55:55;82.07;;;28.10;;
13571;SDS011;6857;53.484;10.216;2022-09-09T02:58:03;54.20;;;28.97;;
13571;SDS011;6857;53.484;10.216;2022-09-09T03:00:32;67.33;;;31.20;;
13571;SDS011;6857;53.484;10.216;2022-09-09T03:03:01;95.47;;;29.47;;
13571;SDS011;6857;53.484;10.216;2022-09-09T03:05:30;61.67;;;28.30;;
13571;SDS011;6857;53.484;10.216;2022-09-09T03:07:56;58.83;;;27.90;;
13571;SDS011;6857;53.484;10.216;2022-09-09T03:10:22;58.03;;;29.37;;
13571;SDS011;6857;53.484;10.216;2022-09-09T03:12:48;62.90;;;29.47;;
13571;SDS011;6857;53.484;10.216;2022-09-09T03:15:14;61.70;;;29.77;;
13571;SDS011;6857;53.484;10.216;2022-09-09T03:17:40;54.00;;;27.63;;
13571;SDS011;6857;53.484;10.216;2022-09-09T03:20:06;59.63;;;30.63;;
13571;SDS011;6857;53.484;10.216;2022-09-09T03:22:33;59.30;;;28.23;;
13571;SDS011;6857;53.484;10.216;2022-09-09T03:24:59;57.97;;;30.57;;
13571;SDS011;6857;53.484;10.216;2022-09-09T03:27:25;54.27;;;27.27;;
13571;SDS011;6857;53.484;10.216;2022-09-09T03:29:50;57.53;;;28.97;;
13571;SDS011;6857;53.484;10.216;2022-09-09T03:32:17;59.53;;;28.93;;
13571;SDS011;6857;53.484;10.216;2022-09-09T03:34:43;55.90;;;29.17;;
13571;SDS011;6857;53.484;10.216;2022-09-09T03:37:09;52.70;;;27.87;;
13571;SDS011;6857;53.484;10.216;2022-09-09T03:39:35;55.30;;;28.70;;
13571;SDS011;6857;53.484;10.216;2022-09-09T03:42:00;60.87;;;29.37;;
13571;SDS011;6857;53.484;10.216;2022-09-09T03:44:29;53.30;;;28.57;;
13571;SDS011;6857;53.484;10.216;2022-09-09T03:46:55;59.20;;;28.60;;
13571;SDS011;6857;53.484;10.216;2022-09-09T03:49:20;58.50;;;28.57;;
13571;SDS011;6857;53.484;10.216;2022-09-09T03:51:47;53.57;;;28.17;;
13571;SDS011;6857;53.484;10.216;2022-09-09T03:54:12;53.27;;;28.37;;
13571;SDS011;6857;53.484;10.216;2022-09-09T03:56:38;57.43;;;27.93;;
13571;SDS011;6857;53.484;10.216;2022-09-09T03:59:06;54.73;;;28.90;;
13571;SDS011;6857;53.484;10.216;2022-09-09T04:01:33;50.03;;;27.63;;
13571;SDS011;6857;53.484;10.216;2022-09-09T04:03:59;51.47;;;27.33;;
13571;SDS011;6857;53.484;10.216;2022-09-09T04:06:26;52.77;;;27.03;;
13571;SDS011;6857;53.484;10.216;2022-09-09T04:08:51;56.63;;;30.03;;
13571;SDS011;6857;53.484;10.216;2022-09-09T04:11:17;57.53;;;29.43;;
13571;SDS011;6857;53.484;10.216;2022-09-09T04:13:43;49.37;;;27.73;;
13571;SDS011;6857;53.484;10.216;2022-09-09T04:16:11;51.63;;;28.17;;
13571;SDS011;6857;53.484;10.216;2022-09-09T04:18:38;56.60;;;28.73;;
13571;SDS011;6857;53.484;10.216;2022-09-09T04:21:04;45.47;;;27.00;;
13571;SDS011;6857;53.484;10.216;2022-09-09T04:23:31;45.17;;;25.93;;
13571;SDS011;6857;53.484;10.216;2022-09-09T04:25:59;47.67;;;26.60;;
13571;SDS011;6857;53.484;10.216;2022-09-09T04:28:27;44.60;;;26.90;;
13571;SDS011;6857;53.484;10.216;2022-09-09T04:30:55;49.23;;;28.27;;
13571;SDS011;6857;53.484;10.216;2022-09-09T04:33:23;43.53;;;25.77;;
13571;SDS011;6857;53.484;10.216;2022-09-09T04:35:51;42.50;;;24.73;;
13571;SDS011;6857;53.484;10.216;2022-09-09T04:38:20;45.10;;;26.03;;
13571;SDS011;6857;53.484;10.216;2022-09-09T04:40:48;42.47;;;24.97;;
13571;SDS011;6857;53.484;10.216;2022-09-09T04:43:14;44.20;;;25.70;;
13571;SDS011;6857;53.484;10.216;2022-09-09T04:45:43;39.93;;;24.80;;
13571;SDS011;6857;53.484;10.216;2022-09-09T04:48:12;39.97;;;24.10;;
13571;SDS011;6857;53.484;10.216;2022-09-09T04:50:38;41.30;;;24.67;;
13571;SDS011;6857;53.484;10.216;2022-09-09T04:53:05;35.33;;;23.17;;
13571;SDS011;6857;53.484;10.216;2022-09-09T04:55:31;36.20;;;23.23;;
13571;SDS011;6857;53.484;10.216;2022-09-09T04:57:57;35.73;;;22.90;;
13571;SDS011;6857;53.484;10.216;2022-09-09T05:00:23;35.13;;;21.90;;
13571;SDS011;6857;53.484;10.216;2022-09-09T05:02:49;31.93;;;20.23;;
13571;SDS011;6857;53.484;10.216;2022-09-09T05:05:16;31.47;;;21.37;;
13571;SDS011;6857;53.484;10.216;2022-09-09T05:07:41;29.00;;;19.70;;
13571;SDS011;6857;53.484;10.216;2022-09-09T05:10:08;28.27;;;20.00;;
13571;SDS011;6857;53.484;10.216;2022-09-09T05:12:35;29.73;;;19.90;;
13571;SDS011;6857;53.484;10.216;2022-09-09T05:15:01;30.33;;;19.43;;
13571;SDS011;6857;53.484;10.216;2022-09-09T05:17:26;26.83;;;19.33;;
13571;SDS011;6857;53.484;10.216;2022-09-09T05:19:52;27.90;;;19.50;;
13571;SDS011;6857;53.484;10.216;2022-09-09T05:22:21;23.30;;;18.07;;
13571;SDS011;6857;53.484;10.216;2022-09-09T05:24:48;27.23;;;19.37;;
13571;SDS011;6857;53.484;10.216;2022-09-09T05:27:16;24.73;;;17.63;;
13571;SDS011;6857;53.484;10.216;2022-09-09T05:29:44;30.23;;;22.10;;
13571;SDS011;6857;53.484;10.216;2022-09-09T05:32:10;23.77;;;17.60;;
13571;SDS011;6857;53.484;10.216;2022-09-09T05:34:35;26.00;;;18.27;;
13571;SDS011;6857;53.484;10.216;2022-09-09T05:37:02;22.10;;;15.67;;
13571;SDS011;6857;53.484;10.216;2022-09-09T05:39:29;22.63;;;16.77;;
13571;SDS011;6857;53.484;10.216;2022-09-09T05:41:54;21.90;;;16.83;;
13571;SDS011;6857;53.484;10.216;2022-09-09T05:44:20;22.90;;;16.27;;
13571;SDS011;6857;53.484;10.216;2022-09-09T05:46:48;20.90;;;15.60;;
13571;SDS011;6857;53.484;10.216;2022-09-09T05:49:14;20.70;;;15.10;;
13571;SDS011;6857;53.484;10.216;2022-09-09T05:51:40;17.10;;;14.33;;
13571;SDS011;6857;53.484;10.216;2022-09-09T05:54:07;18.93;;;13.40;;
13571;SDS011;6857;53.484;10.216;2022-09-09T05:56:33;17.43;;;13.20;;
13571;SDS011;6857;53.484;10.216;2022-09-09T05:58:58;20.47;;;13.63;;
13571;SDS011;6857;53.484;10.216;2022-09-09T06:01:26;17.00;;;13.03;;
13571;SDS011;6857;53.484;10.216;2022-09-09T06:03:53;16.83;;;13.17;;
13571;SDS011;6857;53.484;10.216;2022-09-09T06:06:23;14.43;;;12.10;;
13571;SDS011;6857;53.484;10.216;2022-09-09T06:08:51;17.20;;;12.70;;
13571;SDS011;6857;53.484;10.216;2022-09-09T06:11:19;14.00;;;12.13;;
13571;SDS011;6857;53.484;10.216;2022-09-09T06:13:49;16.63;;;11.93;;
13571;SDS011;6857;53.484;10.216;2022-09-09T06:16:19;19.07;;;14.63;;
13571;SDS011;6857;53.484;10.216;2022-09-09T06:18:48;16.77;;;11.40;;
13571;SDS011;6857;53.484;10.216;2022-09-09T06:21:19;11.93;;;10.73;;
13571;SDS011;6857;53.484;10.216;2022-09-09T06:23:49;14.60;;;11.70;;
13571;SDS011;6857;53.484;10.216;2022-09-09T06:26:26;14.40;;;11.73;;
13571;SDS011;6857;53.484;10.216;2022-09-09T06:28:57;14.50;;;10.83;;
13571;SDS011;6857;53.484;10.216;2022-09-09T06:31:24;12.27;;;10.13;;
13571;SDS011;6857;53.484;10.216;2022-09-09T06:33:53;17.33;;;13.03;;
13571;SDS011;6857;53.484;10.216;2022-09-09T06:36:26;13.53;;;10.57;;
13571;SDS011;6857;53.484;10.216;2022-09-09T06:38:54;13.43;;;10.40;;
13571;SDS011;6857;53.484;10.216;2022-09-09T06:41:20;10.63;;;9.43;;
13571;SDS011;6857;53.484;10.216;2022-09-09T06:43:47;12.07;;;9.13;;
13571;SDS011;6857;53.484;10.216;2022-09-09T06:46:14;11.83;;;9.07;;
13571;SDS011;6857;53.484;10.216;2022-09-09T06:48:41;11.20;;;9.23;;
13571;SDS011;6857;53.484;10.216;2022-09-09T06:51:10;11.60;;;8.40;;
13571;SDS011;6857;53.484;10.216;2022-09-09T06:53:41;10.37;;;8.40;;
13571;SDS011;6857;53.484;10.216;2022-09-09T06:58:34;10.43;;;8.63;;
13571;SDS011;6857;53.484;10.216;2022-09-09T07:01:07;11.17;;;8.60;;
13571;SDS011;6857;53.484;10.216;2022-09-09T07:03:33;13.10;;;9.23;;
13571;SDS011;6857;53.484;10.216;2022-09-09T07:06:00;9.30;;;7.90;;
13571;SDS011;6857;53.484;10.216;2022-09-09T07:08:26;9.13;;;7.97;;
13571;SDS011;6857;53.484;10.216;2022-09-09T07:10:52;12.07;;;8.70;;
13571;SDS011;6857;53.484;10.216;2022-09-09T07:13:19;8.87;;;7.70;;
13571;SDS011;6857;53.484;10.216;2022-09-09T07:15:50;11.00;;;6.77;;
13571;SDS011;6857;53.484;10.216;2022-09-09T07:18:16;8.63;;;7.00;;
13571;SDS011;6857;53.484;10.216;2022-09-09T07:20:42;7.20;;;6.20;;
13571;SDS011;6857;53.484;10.216;2022-09-09T07:23:07;9.87;;;5.90;;
13571;SDS011;6857;53.484;10.216;2022-09-09T07:25:33;6.93;;;5.77;;
13571;SDS011;6857;53.484;10.216;2022-09-09T07:27:58;7.30;;;5.73;;
13571;SDS011;6857;53.484;10.216;2022-09-09T07:30:24;6.00;;;4.83;;
13571;SDS011;6857;53.484;10.216;2022-09-09T07:32:53;9.67;;;5.73;;
13571;SDS011;6857;53.484;10.216;2022-09-09T07:35:18;7.70;;;5.57;;
13571;SDS011;6857;53.484;10.216;2022-09-09T07:37:45;6.83;;;4.80;;
13571;SDS011;6857;53.484;10.216;2022-09-09T07:40:10;4.97;;;4.47;;
13571;SDS011;6857;53.484;10.216;2022-09-09T07:42:36;5.63;;;5.03;;
13571;SDS011;6857;53.484;10.216;2022-09-09T07:45:02;5.53;;;4.40;;
13571;SDS011;6857;53.484;10.216;2022-09-09T07:47:28;5.57;;;5.03;;
13571;SDS011;6857;53.484;10.216;2022-09-09T07:49:54;7.53;;;5.33;;
13571;SDS011;6857;53.484;10.216;2022-09-09T07:52:20;6.03;;;4.53;;
13571;SDS011;6857;53.484;10.216;2022-09-09T07:54:46;4.73;;;3.57;;
13571;SDS011;6857;53.484;10.216;2022-09-09T07:57:12;5.00;;;2.90;;
13571;SDS011;6857;53.484;10.216;2022-09-09T07:59:37;6.17;;;3.37;;
13571;SDS011;6857;53.484;10.216;2022-09-09T08:02:03;3.93;;;3.40;;
13571;SDS011;6857;53.484;10.216;2022-09-09T08:04:29;5.07;;;3.70;;
13571;SDS011;6857;53.484;10.216;2022-09-09T08:06:55;3.50;;;3.20;;
13571;SDS011;6857;53.484;10.216;2022-09-09T08:09:23;4.90;;;3.43;;
13571;SDS011;6857;53.484;10.216;2022-09-09T08:11:51;6.00;;;3.00;;
13571;SDS011;6857;53.484;10.216;2022-09-09T08:14:17;6.80;;;3.63;;
13571;SDS011;6857;53.484;10.216;2022-09-09T08:16:44;11.70;;;9.90;;
13571;SDS011;6857;53.484;10.216;2022-09-09T08:19:11;5.73;;;3.70;;
13571;SDS011;6857;53.484;10.216;2022-09-09T08:21:38;4.97;;;3.20;;
13571;SDS011;6857;53.484;10.216;2022-09-09T08:24:05;4.80;;;2.63;;
13571;SDS011;6857;53.484;10.216;2022-09-09T08:26:33;4.10;;;2.67;;
13571;SDS011;6857;53.484;10.216;2022-09-09T08:29:01;3.13;;;2.77;;
13571;SDS011;6857;53.484;10.216;2022-09-09T08:31:29;10.33;;;8.67;;
13571;SDS011;6857;53.484;10.216;2022-09-09T08:34:00;6.13;;;2.80;;
13571;SDS011;6857;53.484;10.216;2022-09-09T08:36:30;4.77;;;2.83;;
13571;SDS011;6857;53.484;10.216;2022-09-09T08:39:01;2.90;;;2.40;;
13571;SDS011;6857;53.484;10.216;2022-09-09T08:41:40;2.60;;;2.40;;
13571;SDS011;6857;53.484;10.216;2022-09-09T08:49:57;3.43;;;2.30;;
13571;SDS011;6857;53.484;10.216;2022-09-09T08:52:31;4.80;;;2.63;;
13571;SDS011;6857;53.484;10.216;2022-09-09T08:55:59;3.40;;;2.10;;
13571;SDS011;6857;53.484;10.216;2022-09-09T08:58:22;5.23;;;2.00;;
13571;SDS011;6857;53.484;10.216;2022-09-09T09:11:49;6.83;;;5.13;;
13571;SDS011;6857;53.484;10.216;2022-09-09T09:14:24;2.40;;;1.77;;
13571;SDS011;6857;53.484;10.216;2022-09-09T09:16:53;3.27;;;2.30;;
13571;SDS011;6857;53.484;10.216;2022-09-09T09:19:23;5.57;;;3.63;;
13571;SDS011;6857;53.484;10.216;2022-09-09T09:21:57;5.57;;;3.60;;
13571;SDS011;6857;53.484;10.216;2022-09-09T09:24:28;4.40;;;2.17;;
13571;SDS011;6857;53.484;10.216;2022-09-09T09:27:27;3.90;;;2.60;;
13571;SDS011;6857;53.484;10.216;2022-09-09T09:30:01;8.17;;;2.30;;
13571;SDS011;6857;53.484;10.216;2022-09-09T09:32:43;4.13;;;2.67;;
13571;SDS011;6857;53.484;10.216;2022-09-09T09:35:17;2.40;;;2.20;;
13571;SDS011;6857;53.484;10.216;2022-09-09T09:37:43;2.90;;;2.00;;
13571;SDS011;6857;53.484;10.216;2022-09-09T09:42:59;6.00;;;2.40;;
13571;SDS011;6857;53.484;10.216;2022-09-09T09:45:32;3.83;;;3.03;;
13571;SDS011;6857;53.484;10.216;2022-09-09T09:48:03;6.07;;;4.53;;
13571;SDS011;6857;53.484;10.216;2022-09-09T09:50:30;4.13;;;2.20;;
13571;SDS011;6857;53.484;10.216;2022-09-09T09:52:58;5.20;;;2.70;;
13571;SDS011;6857;53.484;10.216;2022-09-09T09:55:26;4.13;;;3.00;;
13571;SDS011;6857;53.484;10.216;2022-09-09T09:58:00;6.73;;;2.63;;
13571;SDS011;6857;53.484;10.216;2022-09-09T10:00:28;4.40;;;2.67;;
13571;SDS011;6857;53.484;10.216;2022-09-09T10:02:54;4.30;;;3.30;;
13571;SDS011;6857;53.484;10.216;2022-09-09T10:05:22;7.53;;;6.00;;
13571;SDS011;6857;53.484;10.216;2022-09-09T10:08:00;4.93;;;2.70;;
13571;SDS011;6857;53.484;10.216;2022-09-09T10:10:39;4.97;;;4.07;;
13571;SDS011;6857;53.484;10.216;2022-09-09T10:13:15;5.00;;;3.40;;
13571;SDS011;6857;53.484;10.216;2022-09-09T10:18:57;6.00;;;5.17;;
13571;SDS011;6857;53.484;10.216;2022-09-09T10:30:24;6.20;;;2.93;;
13571;SDS011;6857;53.484;10.216;2022-09-09T10:33:10;4.47;;;1.60;;
13571;SDS011;6857;53.484;10.216;2022-09-09T10:35:51;2.80;;;1.93;;
13571;SDS011;6857;53.484;10.216;2022-09-09T10:44:02;3.87;;;1.90;;
13571;SDS011;6857;53.484;10.216;2022-09-09T10:55:41;3.53;;;2.10;;
13571;SDS011;6857;53.484;10.216;2022-09-09T10:58:14;6.00;;;2.57;;
13571;SDS011;6857;53.484;10.216;2022-09-09T11:00:48;3.70;;;2.10;;
13571;SDS011;6857;53.484;10.216;2022-09-09T11:03:20;3.60;;;1.80;;
13571;SDS011;6857;53.484;10.216;2022-09-09T11:05:51;2.53;;;2.20;;
13571;SDS011;6857;53.484;10.216;2022-09-09T11:08:23;4.87;;;2.60;;
13571;SDS011;6857;53.484;10.216;2022-09-09T11:10:52;3.73;;;2.10;;
13571;SDS011;6857;53.484;10.216;2022-09-09T11:13:24;5.70;;;1.90;;
13571;SDS011;6857;53.484;10.216;2022-09-09T11:19:39;5.80;;;2.83;;
13571;SDS011;6857;53.484;10.216;2022-09-09T11:22:05;6.87;;;5.37;;
13571;SDS011;6857;53.484;10.216;2022-09-09T11:27:13;3.00;;;1.40;;
13571;SDS011;6857;53.484;10.216;2022-09-09T11:32:38;2.13;;;1.63;;
13571;SDS011;6857;53.484;10.216;2022-09-09T11:35:17;2.67;;;1.57;;
13571;SDS011;6857;53.484;10.216;2022-09-09T11:40:42;3.93;;;2.00;;
13571;SDS011;6857;53.484;10.216;2022-09-09T11:43:13;4.17;;;1.70;;
13571;SDS011;6857;53.484;10.216;2022-09-09T11:45:43;4.90;;;2.00;;
13571;SDS011;6857;53.484;10.216;2022-09-09T11:48:28;12.57;;;4.93;;
13571;SDS011;6857;53.484;10.216;2022-09-09T11:51:09;5.87;;;3.00;;
13571;SDS011;6857;53.484;10.216;2022-09-09T11:56:46;9.03;;;5.40;;
13571;SDS011;6857;53.484;10.216;2022-09-09T11:59:28;4.00;;;3.30;;
13571;SDS011;6857;53.484;10.216;2022-09-09T12:02:03;3.13;;;2.70;;
13571;SDS011;6857;53.484;10.216;2022-09-09T12:04:43;6.03;;;2.63;;
13571;SDS011;6857;53.484;10.216;2022-09-09T12:07:24;5.27;;;2.63;;
13571;SDS011;6857;53.484;10.216;2022-09-09T12:10:00;6.77;;;4.03;;
13571;SDS011;6857;53.484;10.216;2022-09-09T12:12:45;5.10;;;3.77;;
13571;SDS011;6857;53.484;10.216;2022-09-09T12:17:41;3.90;;;2.70;;
13571;SDS011;6857;53.484;10.216;2022-09-09T12:20:26;4.33;;;3.20;;
13571;SDS011;6857;53.484;10.216;2022-09-09T12:37:08;3.30;;;2.50;;
13571;SDS011;6857;53.484;10.216;2022-09-09T12:39:47;4.20;;;2.30;;
13571;SDS011;6857;53.484;10.216;2022-09-09T12:42:20;5.43;;;3.67;;
13571;SDS011;6857;53.484;10.216;2022-09-09T12:44:57;5.93;;;2.50;;
13571;SDS011;6857;53.484;10.216;2022-09-09T12:48:01;4.60;;;2.30;;
13571;SDS011;6857;53.484;10.216;2022-09-09T12:50:32;6.57;;;3.67;;
13571;SDS011;6857;53.484;10.216;2022-09-09T12:55:52;3.57;;;2.20;;
13571;SDS011;6857;53.484;10.216;2022-09-09T12:58:19;5.03;;;2.43;;
13571;SDS011;6857;53.484;10.216;2022-09-09T13:00:52;4.53;;;3.23;;
13571;SDS011;6857;53.484;10.216;2022-09-09T13:03:21;3.70;;;1.60;;
13571;SDS011;6857;53.484;10.216;2022-09-09T13:05:47;2.92;;;2.00;;
13571;SDS011;6857;53.484;10.216;2022-09-09T13:08:14;3.93;;;1.80;;
13571;SDS011;6857;53.484;10.216;2022-09-09T13:10:52;4.00;;;3.37;;
13571;SDS011;6857;53.484;10.216;2022-09-09T13:13:28;4.87;;;1.60;;
13571;SDS011;6857;53.484;10.216;2022-09-09T13:15:56;2.57;;;1.60;;
13571;SDS011;6857;53.484;10.216;2022-09-09T13:18:24;3.27;;;1.73;;
13571;SDS011;6857;53.484;10.216;2022-09-09T13:20:54;3.23;;;2.10;;
13571;SDS011;6857;53.484;10.216;2022-09-09T13:23:21;4.37;;;2.20;;
13571;SDS011;6857;53.484;10.216;2022-09-09T13:25:53;2.23;;;1.77;;
13571;SDS011;6857;53.484;10.216;2022-09-09T13:28:24;4.10;;;1.90;;
13571;SDS011;6857;53.484;10.216;2022-09-09T13:31:01;7.83;;;3.97;;
13571;SDS011;6857;53.484;10.216;2022-09-09T13:33:33;4.43;;;1.90;;
13571;SDS011;6857;53.484;10.216;2022-09-09T13:38:36;5.13;;;2.83;;
13571;SDS011;6857;53.484;10.216;2022-09-09T13:41:04;5.57;;;2.60;;
13571;SDS011;6857;53.484;10.216;2022-09-09T13:43:44;4.67;;;2.90;;
13571;SDS011;6857;53.484;10.216;2022-09-09T13:51:42;6.50;;;2.67;;
13571;SDS011;6857;53.484;10.216;2022-09-09T13:54:13;8.53;;;3.00;;
13571;SDS011;6857;53.484;10.216;2022-09-09T13:56:40;5.90;;;2.70;;
13571;SDS011;6857;53.484;10.216;2022-09-09T13:59:11;4.70;;;4.00;;
13571;SDS011;6857;53.484;10.216;2022-09-09T14:01:41;5.23;;;3.13;;
13571;SDS011;6857;53.484;10.216;2022-09-09T14:04:07;8.97;;;4.50;;
13571;SDS011;6857;53.484;10.216;2022-09-09T14:06:36;7.20;;;4.30;;
13571;SDS011;6857;53.484;10.216;2022-09-09T14:09:08;6.47;;;3.50;;
13571;SDS011;6857;53.484;10.216;2022-09-09T14:11:36;7.33;;;3.90;;
13571;SDS011;6857;53.484;10.216;2022-09-09T14:14:02;5.50;;;3.80;;
13571;SDS011;6857;53.484;10.216;2022-09-09T14:16:27;9.27;;;5.17;;
13571;SDS011;6857;53.484;10.216;2022-09-09T14:18:53;7.00;;;4.03;;
13571;SDS011;6857;53.484;10.216;2022-09-09T14:21:21;13.57;;;9.97;;
13571;SDS011;6857;53.484;10.216;2022-09-09T14:23:47;13.03;;;10.10;;
13571;SDS011;6857;53.484;10.216;2022-09-09T14:26:13;7.87;;;5.63;;
13571;SDS011;6857;53.484;10.216;2022-09-09T14:28:39;16.27;;;12.73;;
13571;SDS011;6857;53.484;10.216;2022-09-09T14:31:05;6.60;;;5.00;;
13571;SDS011;6857;53.484;10.216;2022-09-09T14:33:31;6.53;;;4.57;;
13571;SDS011;6857;53.484;10.216;2022-09-09T14:36:00;6.80;;;4.60;;
13571;SDS011;6857;53.484;10.216;2022-09-09T14:38:32;5.33;;;4.27;;
13571;SDS011;6857;53.484;10.216;2022-09-09T14:40:59;7.10;;;4.50;;
13571;SDS011;6857;53.484;10.216;2022-09-09T14:43:28;7.80;;;5.13;;
13571;SDS011;6857;53.484;10.216;2022-09-09T14:45:55;8.70;;;7.37;;
13571;SDS011;6857;53.484;10.216;2022-09-09T14:48:20;4.90;;;3.10;;
13571;SDS011;6857;53.484;10.216;2022-09-09T14:50:46;8.27;;;5.93;;
13571;SDS011;6857;53.484;10.216;2022-09-09T14:53:11;8.97;;;5.40;;
13571;SDS011;6857;53.484;10.216;2022-09-09T14:55:37;6.37;;;5.17;;
13571;SDS011;6857;53.484;10.216;2022-09-09T14:58:03;7.17;;;5.20;;
13571;SDS011;6857;53.484;10.216;2022-09-09T15:00:29;7.27;;;5.00;;
13571;SDS011;6857;53.484;10.216;2022-09-09T15:02:55;5.60;;;4.37;;
13571;SDS011;6857;53.484;10.216;2022-09-09T15:05:21;4.20;;;2.87;;
13571;SDS011;6857;53.484;10.216;2022-09-09T15:07:47;10.00;;;6.33;;
13571;SDS011;6857;53.484;10.216;2022-09-09T15:10:16;9.70;;;7.83;;
13571;SDS011;6857;53.484;10.216;2022-09-09T15:12:45;7.80;;;5.70;;
13571;SDS011;6857;53.484;10.216;2022-09-09T15:15:10;21.57;;;19.10;;
13571;SDS011;6857;53.484;10.216;2022-09-09T15:17:37;6.17;;;4.20;;
13571;SDS011;6857;53.484;10.216;2022-09-09T15:20:03;17.10;;;12.60;;
13571;SDS011;6857;53.484;10.216;2022-09-09T15:22:30;8.47;;;5.13;;
13571;SDS011;6857;53.484;10.216;2022-09-09T15:24:56;9.73;;;5.77;;
13571;SDS011;6857;53.484;10.216;2022-09-09T15:27:22;7.33;;;5.00;;
13571;SDS011;6857;53.484;10.216;2022-09-09T15:29:48;10.10;;;4.90;;
13571;SDS011;6857;53.484;10.216;2022-09-09T15:32:15;5.60;;;4.20;;
13571;SDS011;6857;53.484;10.216;2022-09-09T15:34:40;5.63;;;4.80;;
13571;SDS011;6857;53.484;10.216;2022-09-09T15:37:09;7.97;;;5.50;;
13571;SDS011;6857;53.484;10.216;2022-09-09T15:39:35;8.00;;;7.13;;
13571;SDS011;6857;53.484;10.216;2022-09-09T15:42:01;11.50;;;8.97;;
13571;SDS011;6857;53.484;10.216;2022-09-09T15:44:26;17.60;;;13.30;;
13571;SDS011;6857;53.484;10.216;2022-09-09T15:46:52;11.83;;;7.77;;
13571;SDS011;6857;53.484;10.216;2022-09-09T15:49:24;9.27;;;5.20;;
13571;SDS011;6857;53.484;10.216;2022-09-09T15:51:52;8.87;;;6.27;;
13571;SDS011;6857;53.484;10.216;2022-09-09T15:54:19;7.70;;;6.13;;
13571;SDS011;6857;53.484;10.216;2022-09-09T15:56:49;6.77;;;6.00;;
13571;SDS011;6857;53.484;10.216;2022-09-09T15:59:17;8.00;;;6.23;;
13571;SDS011;6857;53.484;10.216;2022-09-09T16:01:43;7.13;;;5.77;;
13571;SDS011;6857;53.484;10.216;2022-09-09T16:04:09;8.77;;;6.43;;
13571;SDS011;6857;53.484;10.216;2022-09-09T16:06:35;8.07;;;6.63;;
13571;SDS011;6857;53.484;10.216;2022-09-09T16:09:02;7.93;;;6.00;;
13571;SDS011;6857;53.484;10.216;2022-09-09T16:11:30;8.77;;;4.97;;
13571;SDS011;6857;53.484;10.216;2022-09-09T16:13:57;6.83;;;5.50;;
13571;SDS011;6857;53.484;10.216;2022-09-09T16:16:24;7.23;;;5.27;;
13571;SDS011;6857;53.484;10.216;2022-09-09T16:18:53;6.30;;;4.60;;
13571;SDS011;6857;53.484;10.216;2022-09-09T16:21:28;7.90;;;5.77;;
13571;SDS011;6857;53.484;10.216;2022-09-09T16:24:05;8.67;;;6.97;;
13571;SDS011;6857;53.484;10.216;2022-09-09T16:26:33;7.93;;;5.23;;
13571;SDS011;6857;53.484;10.216;2022-09-09T16:29:00;9.03;;;4.60;;
13571;SDS011;6857;53.484;10.216;2022-09-09T16:31:28;5.77;;;4.30;;
13571;SDS011;6857;53.484;10.216;2022-09-09T16:33:54;6.50;;;3.70;;
13571;SDS011;6857;53.484;10.216;2022-09-09T16:36:21;5.70;;;4.20;;
13571;SDS011;6857;53.484;10.216;2022-09-09T16:38:52;4.40;;;3.37;;
13571;SDS011;6857;53.484;10.216;2022-09-09T16:41:22;5.47;;;4.03;;
13571;SDS011;6857;53.484;10.216;2022-09-09T16:43:55;6.53;;;3.70;;
13571;SDS011;6857;53.484;10.216;2022-09-09T16:46:23;4.73;;;3.63;;
13571;SDS011;6857;53.484;10.216;2022-09-09T16:48:49;7.93;;;3.80;;
13571;SDS011;6857;53.484;10.216;2022-09-09T16:51:16;5.57;;;3.77;;
13571;SDS011;6857;53.484;10.216;2022-09-09T16:53:44;5.57;;;3.20;;
13571;SDS011;6857;53.484;10.216;2022-09-09T16:56:14;5.30;;;3.57;;
13571;SDS011;6857;53.484;10.216;2022-09-09T16:58:41;4.77;;;3.90;;
13571;SDS011;6857;53.484;10.216;2022-09-09T17:01:10;6.47;;;4.30;;
13571;SDS011;6857;53.484;10.216;2022-09-09T17:03:39;6.87;;;4.47;;
13571;SDS011;6857;53.484;10.216;2022-09-09T17:06:11;30.67;;;23.43;;